createdAt,value
2023-09-05T00:00:56.435Z,20.35
2023-09-05T00:06:05.897Z,20.31
2023-09-05T00:11:09.213Z,20.30
2023-09-05T00:16:12.202Z,20.23
2023-09-05T00:21:19.764Z,20.17
2023-09-05T00:26:22.829Z,20.11
2023-09-05T00:31:26.483Z,20.01
2023-09-05T00:36:31.836Z,20.00
2023-09-05T00:41:36.470Z,19.96
2023-09-05T00:46:40.238Z,19.98
2023-09-05T00:51:47.039Z,19.96
2023-09-05T00:56:50.340Z,19.88
2023-09-05T01:01:53.259Z,19.83
2023-09-05T01:07:03.956Z,19.77
2023-09-05T01:12:07.295Z,19.72
2023-09-05T01:17:10.220Z,19.75
2023-09-05T01:22:19.652Z,19.77
2023-09-05T01:27:26.106Z,19.76
2023-09-05T01:32:29.032Z,19.79
2023-09-05T01:37:31.867Z,19.86
2023-09-05T01:42:36.104Z,19.85
2023-09-05T01:47:38.989Z,19.91
2023-09-05T01:52:41.898Z,19.93
2023-09-05T01:57:46.093Z,19.94
2023-09-05T02:02:49.070Z,19.96
2023-09-05T02:07:52.196Z,19.96
2023-09-05T02:12:56.408Z,19.91
2023-09-05T02:18:01.913Z,19.66
2023-09-05T02:23:05.223Z,19.74
2023-09-05T02:28:09.615Z,19.67
2023-09-05T02:33:12.593Z,19.72
2023-09-05T02:38:15.556Z,19.63
2023-09-05T02:43:19.861Z,19.80
2023-09-05T02:48:22.995Z,19.81
2023-09-05T02:53:25.942Z,19.97
2023-09-05T02:58:33.227Z,20.22
2023-09-05T03:03:36.302Z,20.24
2023-09-05T03:08:39.955Z,20.32
2023-09-05T03:13:45.477Z,20.34
2023-09-05T03:18:48.729Z,20.33
2023-09-05T03:23:51.660Z,20.09
2023-09-05T03:28:57.064Z,20.18
2023-09-05T03:34:00.056Z,20.24
2023-09-05T03:39:03.033Z,20.21
2023-09-05T03:44:07.737Z,20.15
2023-09-05T03:49:10.727Z,20.15
2023-09-05T03:54:14.212Z,20.10
2023-09-05T03:59:18.795Z,20.09
2023-09-05T04:04:21.734Z,19.99
2023-09-05T04:09:24.701Z,19.99
2023-09-05T04:14:30.914Z,19.84
2023-09-05T04:19:33.817Z,19.76
2023-09-05T04:24:36.662Z,19.64
2023-09-05T04:29:40.977Z,19.61
2023-09-05T04:34:44.226Z,19.57
2023-09-05T04:39:47.081Z,19.46
2023-09-05T04:44:54.286Z,19.71
2023-09-05T04:49:59.548Z,19.52
2023-09-05T04:55:02.663Z,19.78
2023-09-05T05:00:08.832Z,19.84
2023-09-05T05:05:13.150Z,19.75
2023-09-05T05:10:16.358Z,19.71
2023-09-05T05:15:20.798Z,19.84
2023-09-05T05:20:23.761Z,19.81
2023-09-05T05:25:31.154Z,19.71
2023-09-05T05:30:37.991Z,19.78
2023-09-05T05:35:41.193Z,19.83
2023-09-05T05:40:44.210Z,19.80
2023-09-05T05:45:51.017Z,19.89
2023-09-05T05:50:58.030Z,19.96
2023-09-05T05:56:01.183Z,20.09
2023-09-05T06:01:07.976Z,20.17
2023-09-05T06:06:10.908Z,20.19
2023-09-05T06:11:14.244Z,20.16
2023-09-05T06:16:18.639Z,20.23
2023-09-05T06:21:21.629Z,20.35
2023-09-05T06:26:24.731Z,20.68
2023-09-05T06:31:29.247Z,20.68
2023-09-05T06:36:34.038Z,20.80
2023-09-05T06:41:39.337Z,20.81
2023-09-05T06:46:46.298Z,20.88
2023-09-05T06:51:51.295Z,21.25
2023-09-05T06:56:54.480Z,22.75
2023-09-05T07:01:58.918Z,24.47
2023-09-05T07:07:04.504Z,25.50
2023-09-05T07:12:09.203Z,26.24
2023-09-05T07:17:13.621Z,26.99
2023-09-05T07:22:16.636Z,28.48
2023-09-05T07:27:21.499Z,29.20
2023-09-05T07:32:25.919Z,29.42
2023-09-05T07:37:28.934Z,29.64
2023-09-05T07:42:31.892Z,29.20
2023-09-05T07:47:36.322Z,28.69
2023-09-05T07:52:39.341Z,28.07
2023-09-05T07:57:43.270Z,27.46
2023-09-05T08:02:49.745Z,27.14
2023-09-05T08:07:52.872Z,26.40
2023-09-05T08:12:56.213Z,25.73
2023-09-05T08:18:00.536Z,25.54
2023-09-05T08:23:03.371Z,25.48
2023-09-05T08:28:07.430Z,25.32
2023-09-05T08:33:11.910Z,25.23
2023-09-05T08:38:15.107Z,24.84
2023-09-05T08:43:18.576Z,25.00
2023-09-05T08:48:23.409Z,25.08
2023-09-05T08:53:33.609Z,25.05
2023-09-05T08:58:37.050Z,25.22
2023-09-05T09:03:41.489Z,25.47
2023-09-05T09:08:45.576Z,25.68
2023-09-05T09:14:14.622Z,25.59
2023-09-05T09:19:18.925Z,25.55
2023-09-05T09:24:21.856Z,25.80
2023-09-05T09:29:24.938Z,25.51
2023-09-05T09:34:29.376Z,25.88
2023-09-05T09:39:33.626Z,25.97
2023-09-05T09:44:37.544Z,26.08
2023-09-05T09:49:46.554Z,26.19
2023-09-05T09:54:52.221Z,26.32
2023-09-05T10:00:00.933Z,26.48
2023-09-05T10:05:08.259Z,26.44
2023-09-05T10:10:16.719Z,26.57
2023-09-05T10:15:21.317Z,26.75
2023-09-05T10:20:28.647Z,26.63
2023-09-05T10:25:32.193Z,26.51
2023-09-05T10:30:40.973Z,26.77
2023-09-05T10:35:52.816Z,26.89
2023-09-05T10:40:55.968Z,27.17
2023-09-05T10:46:01.140Z,27.29
2023-09-05T10:51:11.640Z,27.21
2023-09-05T10:56:40.365Z,27.38
2023-09-05T11:01:49.857Z,27.38
2023-09-05T11:07:01.730Z,27.07
2023-09-05T11:12:07.592Z,27.41
2023-09-05T11:17:17.424Z,27.17
2023-09-05T11:22:23.818Z,27.31
2023-09-05T11:27:30.169Z,27.18
2023-09-05T11:32:34.816Z,27.08
2023-09-05T11:37:39.426Z,27.18
2023-09-05T11:42:44.770Z,27.06
2023-09-05T11:47:48.833Z,27.25
2023-09-05T11:52:54.236Z,27.28
2023-09-05T11:57:59.491Z,27.29
2023-09-05T12:03:02.573Z,27.26
2023-09-05T12:08:18.748Z,27.05
2023-09-05T12:13:39.255Z,27.29
2023-09-05T12:18:45.336Z,27.47
2023-09-05T12:23:51.553Z,27.46
2023-09-05T12:28:59.326Z,27.64
2023-09-05T12:34:02.263Z,27.73
2023-09-05T12:39:06.950Z,27.60
2023-09-05T12:44:09.999Z,27.71
2023-09-05T12:49:13.880Z,27.91
2023-09-05T12:54:18.289Z,27.86
2023-09-05T12:59:25.377Z,27.98
2023-09-05T13:04:31.125Z,28.06
2023-09-05T13:09:35.529Z,28.05
2023-09-05T13:14:38.500Z,28.16
2023-09-05T13:19:42.077Z,28.05
2023-09-05T13:24:47.480Z,27.97
2023-09-05T13:29:51.434Z,27.95
2023-09-05T13:34:55.137Z,28.20
2023-09-05T13:39:59.526Z,28.29
2023-09-05T13:45:03.087Z,28.44
2023-09-05T13:50:07.927Z,28.59
2023-09-05T13:55:12.699Z,28.43
2023-09-05T14:00:16.540Z,28.20
2023-09-05T14:05:21.429Z,28.57
2023-09-05T14:10:25.843Z,28.68
2023-09-05T14:15:28.937Z,28.48
2023-09-05T14:20:31.952Z,28.79
2023-09-05T14:25:36.553Z,28.91
2023-09-05T14:30:39.517Z,28.97
2023-09-05T14:35:42.525Z,29.13
2023-09-05T14:40:46.928Z,28.91
2023-09-05T14:45:50.065Z,29.15
2023-09-05T14:50:53.143Z,29.08
2023-09-05T14:55:57.528Z,29.06
2023-09-05T15:01:00.535Z,29.13
2023-09-05T15:06:03.605Z,29.42
2023-09-05T15:11:08.782Z,29.45
2023-09-05T15:16:11.984Z,29.42
2023-09-05T15:21:15.119Z,29.20
2023-09-05T15:26:19.945Z,29.41
2023-09-05T15:31:23.049Z,29.39
2023-09-05T15:36:26.156Z,29.19
2023-09-05T15:41:30.696Z,29.24
2023-09-05T15:46:34.057Z,29.32
2023-09-05T15:51:37.164Z,29.27
2023-09-05T15:56:41.626Z,29.34
2023-09-05T16:01:44.686Z,29.39
2023-09-05T16:06:47.702Z,29.50
2023-09-05T16:11:52.074Z,29.37
2023-09-05T16:16:57.843Z,29.48
2023-09-05T16:22:00.900Z,29.46
2023-09-05T16:27:05.770Z,29.39
2023-09-05T16:32:08.730Z,29.36
2023-09-05T16:37:16.076Z,29.26
2023-09-05T16:42:20.872Z,29.14
2023-09-05T16:47:23.906Z,28.83
2023-09-05T16:52:26.909Z,29.00
2023-09-05T16:57:31.257Z,29.05
2023-09-05T17:02:34.317Z,28.90
2023-09-05T17:07:37.379Z,28.84
2023-09-05T17:12:41.894Z,28.91
2023-09-05T17:17:44.936Z,28.76
2023-09-05T17:22:48.127Z,28.51
2023-09-05T17:27:52.628Z,28.45
2023-09-05T17:32:55.707Z,28.20
2023-09-05T17:37:58.806Z,27.91
2023-09-05T17:43:03.462Z,27.91
2023-09-05T17:48:07.314Z,27.92
2023-09-05T17:53:10.957Z,27.77
2023-09-05T17:58:15.382Z,27.58
2023-09-05T18:03:24.113Z,27.10
2023-09-05T18:08:27.586Z,27.00
2023-09-05T18:13:32.018Z,26.90
2023-09-05T18:18:35.522Z,26.96
2023-09-05T18:23:40.012Z,26.89
2023-09-05T18:28:44.454Z,26.71
2023-09-05T18:33:47.579Z,26.54
2023-09-05T18:38:50.584Z,26.19
2023-09-05T18:43:55.614Z,26.06
2023-09-05T18:48:58.657Z,25.99
2023-09-05T18:54:01.690Z,25.99
2023-09-05T18:59:06.194Z,25.80
2023-09-05T19:04:09.423Z,25.86
2023-09-05T19:09:14.571Z,25.94
2023-09-05T19:14:18.929Z,25.89
2023-09-05T19:19:21.929Z,25.87
2023-09-05T19:24:24.895Z,25.80
2023-09-05T19:29:30.013Z,25.77
2023-09-05T19:34:33.350Z,25.76
2023-09-05T19:39:36.330Z,25.67
2023-09-05T19:44:41.094Z,25.63
2023-09-05T19:49:44.029Z,25.48
2023-09-05T19:54:47.217Z,25.42
2023-09-05T19:59:53.368Z,25.48
2023-09-05T20:04:58.451Z,25.47
2023-09-05T20:10:01.406Z,25.41
2023-09-05T20:15:06.639Z,25.37
2023-09-05T20:20:13.615Z,25.35
2023-09-05T20:25:16.546Z,25.27
2023-09-05T20:30:21.051Z,25.20
2023-09-05T20:35:24.152Z,25.10
2023-09-05T20:40:27.126Z,25.04
2023-09-05T20:45:32.394Z,25.01
2023-09-05T20:50:35.820Z,24.99
2023-09-05T20:55:38.753Z,24.93
2023-09-05T21:00:43.205Z,24.89
2023-09-05T21:05:46.223Z,24.82
2023-09-05T21:10:49.155Z,24.75
2023-09-05T21:15:58.003Z,24.65
2023-09-05T21:21:00.969Z,24.60
2023-09-05T21:26:05.045Z,24.54
2023-09-05T21:31:09.499Z,24.45
2023-09-05T21:36:12.436Z,24.48
2023-09-05T21:41:15.371Z,24.44
2023-09-05T21:46:19.660Z,24.41
2023-09-05T21:51:22.620Z,24.40
2023-09-05T21:56:25.598Z,24.36
2023-09-05T22:01:31.894Z,24.29
2023-09-05T22:06:36.266Z,24.33
2023-09-05T22:11:39.207Z,24.35
2023-09-05T22:16:45.248Z,24.39
2023-09-05T22:21:48.288Z,24.35
2023-09-05T22:26:51.228Z,24.30
2023-09-05T22:31:55.883Z,24.30
2023-09-05T22:36:59.026Z,24.25
2023-09-05T22:42:02.020Z,24.23
2023-09-05T22:47:06.602Z,24.18
2023-09-05T22:52:10.249Z,24.17
2023-09-05T22:57:13.177Z,24.13
2023-09-05T23:02:17.469Z,24.06
2023-09-05T23:07:20.511Z,23.98
2023-09-05T23:12:23.982Z,23.88
2023-09-05T23:17:31.668Z,23.70
2023-09-05T23:22:34.839Z,23.53
2023-09-05T23:27:37.792Z,23.47
2023-09-05T23:32:43.025Z,23.53
2023-09-05T23:37:46.239Z,23.57
2023-09-05T23:42:49.254Z,23.58
2023-09-05T23:47:55.134Z,23.57
2023-09-05T23:52:59.456Z,23.53
2023-09-05T23:58:02.583Z,23.53
